sensor_id;sensor_type;location;lat;lon;timestamp;pressure;altitude;pressure_sealevel;temperature;humidity
27425;BME280;15244;49.088;11.886;2022-07-18T00:01:02;96606.84;;;24.13;21.66
27425;BME280;15244;49.088;11.886;2022-07-18T00:06:05;96608.97;;;24.09;21.43
27425;BME280;15244;49.088;11.886;2022-07-18T00:11:06;96605.09;;;24.07;21.45
27425;BME280;15244;49.088;11.886;2022-07-18T00:16:10;96600.88;;;24.02;21.48
27425;BME280;15244;49.088;11.886;2022-07-18T00:21:13;96603.78;;;23.98;21.38
27425;BME280;15244;49.088;11.886;2022-07-18T00:26:18;96607.16;;;23.93;21.73
27425;BME280;15244;49.088;11.886;2022-07-18T00:31:22;96606.94;;;23.88;21.76
27425;BME280;15244;49.088;11.886;2022-07-18T00:36:24;96605.19;;;23.81;21.96
27425;BME280;15244;49.088;11.886;2022-07-18T00:41:27;96608.53;;;23.76;22.03
27425;BME280;15244;49.088;11.886;2022-07-18T00:46:30;96607.84;;;23.72;21.68
27425;BME280;15244;49.088;11.886;2022-07-18T00:51:33;96604.84;;;23.66;22.12
27425;BME280;15244;49.088;11.886;2022-07-18T00:56:40;96602.75;;;23.57;22.28
27425;BME280;15244;49.088;11.886;2022-07-18T01:01:45;96598.63;;;23.49;22.40
27425;BME280;15244;49.088;11.886;2022-07-18T01:06:51;96607.69;;;23.41;22.25
27425;BME280;15244;49.088;11.886;2022-07-18T01:11:57;96605.91;;;23.34;22.61
27425;BME280;15244;49.088;11.886;2022-07-18T01:17:02;96614.81;;;23.29;22.69
27425;BME280;15244;49.088;11.886;2022-07-18T01:22:07;96607.47;;;23.22;22.70
27425;BME280;15244;49.088;11.886;2022-07-18T01:27:13;96601.38;;;23.14;22.90
27425;BME280;15244;49.088;11.886;2022-07-18T01:32:17;96605.91;;;23.08;23.11
27425;BME280;15244;49.088;11.886;2022-07-18T01:37:21;96611.25;;;23.03;22.95
27425;BME280;15244;49.088;11.886;2022-07-18T01:42:23;96603.09;;;22.96;23.16
27425;BME280;15244;49.088;11.886;2022-07-18T01:47:26;96593.75;;;22.89;23.28
27425;BME280;15244;49.088;11.886;2022-07-18T01:52:28;96604.63;;;22.84;23.13
27425;BME280;15244;49.088;11.886;2022-07-18T01:57:32;96605.66;;;22.77;23.03
27425;BME280;15244;49.088;11.886;2022-07-18T02:02:33;96614.19;;;22.70;23.35
27425;BME280;15244;49.088;11.886;2022-07-18T02:07:38;96623.50;;;22.63;23.49
27425;BME280;15244;49.088;11.886;2022-07-18T02:12:42;96620.50;;;22.58;24.06
27425;BME280;15244;49.088;11.886;2022-07-18T02:17:44;96623.81;;;22.53;24.17
27425;BME280;15244;49.088;11.886;2022-07-18T02:22:47;96626.38;;;22.47;24.42
27425;BME280;15244;49.088;11.886;2022-07-18T02:27:51;96620.13;;;22.43;25.05
27425;BME280;15244;49.088;11.886;2022-07-18T02:32:55;96625.03;;;22.39;25.13
27425;BME280;15244;49.088;11.886;2022-07-18T02:37:56;96623.56;;;22.34;25.38
27425;BME280;15244;49.088;11.886;2022-07-18T02:42:59;96618.09;;;22.31;25.54
27425;BME280;15244;49.088;11.886;2022-07-18T02:48:02;96609.09;;;22.26;26.26
27425;BME280;15244;49.088;11.886;2022-07-18T02:53:05;96615.53;;;22.23;26.34
27425;BME280;15244;49.088;11.886;2022-07-18T02:58:08;96618.38;;;22.20;27.33
27425;BME280;15244;49.088;11.886;2022-07-18T03:03:10;96618.00;;;22.18;27.30
27425;BME280;15244;49.088;11.886;2022-07-18T03:08:15;96614.09;;;22.15;27.79
27425;BME280;15244;49.088;11.886;2022-07-18T03:13:18;96626.09;;;22.12;27.97
27425;BME280;15244;49.088;11.886;2022-07-18T03:18:20;96629.00;;;22.08;27.92
27425;BME280;15244;49.088;11.886;2022-07-18T03:23:24;96636.63;;;22.04;27.95
27425;BME280;15244;49.088;11.886;2022-07-18T03:28:27;96637.50;;;22.01;28.33
27425;BME280;15244;49.088;11.886;2022-07-18T03:33:32;96631.25;;;21.97;28.48
27425;BME280;15244;49.088;11.886;2022-07-18T03:38:39;96633.38;;;21.93;28.46
27425;BME280;15244;49.088;11.886;2022-07-18T03:43:44;96639.44;;;21.88;28.59
27425;BME280;15244;49.088;11.886;2022-07-18T03:48:47;96639.09;;;21.86;28.81
27425;BME280;15244;49.088;11.886;2022-07-18T03:53:51;96644.28;;;21.84;28.78
27425;BME280;15244;49.088;11.886;2022-07-18T03:58:56;96634.06;;;21.81;29.13
27425;BME280;15244;49.088;11.886;2022-07-18T04:04:08;96640.03;;;21.79;29.27
27425;BME280;15244;49.088;11.886;2022-07-18T04:09:11;96642.03;;;21.79;29.24
27425;BME280;15244;49.088;11.886;2022-07-18T04:14:14;96632.94;;;21.78;29.62
27425;BME280;15244;49.088;11.886;2022-07-18T04:19:18;96637.72;;;21.78;29.51
27425;BME280;15244;49.088;11.886;2022-07-18T04:24:24;96635.38;;;21.76;29.06
27425;BME280;15244;49.088;11.886;2022-07-18T04:29:30;96640.91;;;21.76;28.98
27425;BME280;15244;49.088;11.886;2022-07-18T04:34:34;96638.91;;;21.77;28.70
27425;BME280;15244;49.088;11.886;2022-07-18T04:39:40;96635.25;;;21.80;29.22
27425;BME280;15244;49.088;11.886;2022-07-18T04:44:47;96638.84;;;21.80;28.57
27425;BME280;15244;49.088;11.886;2022-07-18T04:49:53;96639.97;;;21.83;29.04
27425;BME280;15244;49.088;11.886;2022-07-18T04:55:00;96643.41;;;21.87;28.77
27425;BME280;15244;49.088;11.886;2022-07-18T05:00:04;96637.78;;;21.91;28.95
27425;BME280;15244;49.088;11.886;2022-07-18T05:05:19;96643.59;;;21.96;29.28
27425;BME280;15244;49.088;11.886;2022-07-18T05:10:22;96635.16;;;22.00;29.14
27425;BME280;15244;49.088;11.886;2022-07-18T05:15:27;96637.84;;;22.03;28.98
27425;BME280;15244;49.088;11.886;2022-07-18T05:20:30;96645.66;;;22.08;29.36
27425;BME280;15244;49.088;11.886;2022-07-18T05:25:41;96643.13;;;22.14;29.47
27425;BME280;15244;49.088;11.886;2022-07-18T05:30:44;96638.59;;;22.20;29.84
27425;BME280;15244;49.088;11.886;2022-07-18T05:35:48;96641.53;;;22.29;29.79
27425;BME280;15244;49.088;11.886;2022-07-18T05:40:51;96644.91;;;22.37;29.48
27425;BME280;15244;49.088;11.886;2022-07-18T05:45:56;96640.69;;;22.45;29.44
27425;BME280;15244;49.088;11.886;2022-07-18T05:51:07;96632.50;;;22.55;29.87
27425;BME280;15244;49.088;11.886;2022-07-18T05:56:11;96637.88;;;22.62;29.93
27425;BME280;15244;49.088;11.886;2022-07-18T06:01:16;96649.09;;;22.71;29.85
27425;BME280;15244;49.088;11.886;2022-07-18T06:06:22;96644.44;;;22.81;30.31
27425;BME280;15244;49.088;11.886;2022-07-18T06:11:26;96637.78;;;22.91;30.38
27425;BME280;15244;49.088;11.886;2022-07-18T06:16:28;96642.28;;;23.01;30.17
27425;BME280;15244;49.088;11.886;2022-07-18T06:21:30;96643.53;;;23.13;30.22
27425;BME280;15244;49.088;11.886;2022-07-18T06:26:33;96655.09;;;23.24;30.43
27425;BME280;15244;49.088;11.886;2022-07-18T06:31:35;96650.41;;;23.34;30.10
27425;BME280;15244;49.088;11.886;2022-07-18T06:36:38;96650.09;;;23.45;30.06
27425;BME280;15244;49.088;11.886;2022-07-18T06:41:40;96646.97;;;23.55;30.01
27425;BME280;15244;49.088;11.886;2022-07-18T06:46:46;96653.41;;;23.65;30.01
27425;BME280;15244;49.088;11.886;2022-07-18T06:51:48;96649.06;;;23.77;29.85
27425;BME280;15244;49.088;11.886;2022-07-18T06:56:50;96644.69;;;23.89;29.94
27425;BME280;15244;49.088;11.886;2022-07-18T07:01:51;96649.91;;;23.99;29.89
27425;BME280;15244;49.088;11.886;2022-07-18T07:06:53;96641.97;;;24.11;29.63
27425;BME280;15244;49.088;11.886;2022-07-18T07:11:55;96643.59;;;24.21;29.75
27425;BME280;15244;49.088;11.886;2022-07-18T07:16:57;96648.34;;;24.33;29.00
27425;BME280;15244;49.088;11.886;2022-07-18T07:21:59;96651.97;;;24.43;29.10
27425;BME280;15244;49.088;11.886;2022-07-18T07:27:01;96651.16;;;24.55;28.77
27425;BME280;15244;49.088;11.886;2022-07-18T07:32:03;96648.75;;;24.67;28.68
27425;BME280;15244;49.088;11.886;2022-07-18T07:37:05;96649.13;;;24.78;28.86
27425;BME280;15244;49.088;11.886;2022-07-18T07:42:07;96645.81;;;24.92;28.59
27425;BME280;15244;49.088;11.886;2022-07-18T07:47:09;96644.47;;;25.06;28.59
27425;BME280;15244;49.088;11.886;2022-07-18T07:52:14;96645.50;;;25.21;28.20
27425;BME280;15244;49.088;11.886;2022-07-18T07:57:20;96646.19;;;25.35;28.31
27425;BME280;15244;49.088;11.886;2022-07-18T08:02:34;96638.47;;;25.48;28.44
27425;BME280;15244;49.088;11.886;2022-07-18T08:07:35;96635.09;;;25.62;28.15
27425;BME280;15244;49.088;11.886;2022-07-18T08:12:37;96639.78;;;25.74;27.99
27425;BME280;15244;49.088;11.886;2022-07-18T08:17:39;96637.97;;;25.90;28.33
27425;BME280;15244;49.088;11.886;2022-07-18T08:23:05;96635.69;;;26.07;28.43
27425;BME280;15244;49.088;11.886;2022-07-18T08:28:07;96625.91;;;26.21;27.91
27425;BME280;15244;49.088;11.886;2022-07-18T08:33:12;96635.69;;;26.34;27.96
27425;BME280;15244;49.088;11.886;2022-07-18T08:38:14;96624.03;;;26.45;27.47
27425;BME280;15244;49.088;11.886;2022-07-18T08:43:19;96622.03;;;26.55;27.68
27425;BME280;15244;49.088;11.886;2022-07-18T08:48:25;96621.84;;;26.68;27.39
27425;BME280;15244;49.088;11.886;2022-07-18T08:53:28;96612.19;;;26.78;26.95
27425;BME280;15244;49.088;11.886;2022-07-18T08:58:30;96621.47;;;26.93;27.12
27425;BME280;15244;49.088;11.886;2022-07-18T09:03:47;96624.38;;;27.08;26.84
27425;BME280;15244;49.088;11.886;2022-07-18T09:09:11;96616.72;;;27.27;26.69
27425;BME280;15244;49.088;11.886;2022-07-18T09:14:39;96611.50;;;27.44;26.45
27425;BME280;15244;49.088;11.886;2022-07-18T09:19:43;96615.75;;;27.63;26.42
27425;BME280;15244;49.088;11.886;2022-07-18T09:24:59;96616.59;;;27.79;26.49
27425;BME280;15244;49.088;11.886;2022-07-18T09:35:28;96603.59;;;28.15;25.96
27425;BME280;15244;49.088;11.886;2022-07-18T09:40:38;96601.59;;;28.30;25.81
27425;BME280;15244;49.088;11.886;2022-07-18T09:45:46;96607.56;;;28.47;25.17
27425;BME280;15244;49.088;11.886;2022-07-18T09:50:58;96609.78;;;28.58;24.48
27425;BME280;15244;49.088;11.886;2022-07-18T09:56:08;96600.31;;;28.70;24.83
27425;BME280;15244;49.088;11.886;2022-07-18T10:01:10;96603.88;;;28.85;24.46
27425;BME280;15244;49.088;11.886;2022-07-18T10:06:13;96605.91;;;29.00;24.58
27425;BME280;15244;49.088;11.886;2022-07-18T10:11:15;96590.34;;;29.13;24.27
27425;BME280;15244;49.088;11.886;2022-07-18T10:16:16;96601.25;;;29.26;24.14
27425;BME280;15244;49.088;11.886;2022-07-18T10:21:19;96592.50;;;29.39;23.67
27425;BME280;15244;49.088;11.886;2022-07-18T10:26:24;96590.94;;;29.53;23.79
27425;BME280;15244;49.088;11.886;2022-07-18T10:31:28;96585.84;;;29.72;23.06
27425;BME280;15244;49.088;11.886;2022-07-18T10:36:30;96586.06;;;29.89;22.97
27425;BME280;15244;49.088;11.886;2022-07-18T10:57:35;96569.22;;;30.35;22.44
27425;BME280;15244;49.088;11.886;2022-07-18T11:23:42;96550.31;;;30.94;20.99
27425;BME280;15244;49.088;11.886;2022-07-18T11:28:46;96546.06;;;31.04;21.03
27425;BME280;15244;49.088;11.886;2022-07-18T11:33:50;96549.00;;;31.21;21.19
27425;BME280;15244;49.088;11.886;2022-07-18T11:38:54;96548.84;;;31.36;21.43
27425;BME280;15244;49.088;11.886;2022-07-18T11:43:56;96545.13;;;31.50;20.86
27425;BME280;15244;49.088;11.886;2022-07-18T11:49:05;96527.75;;;31.63;20.56
27425;BME280;15244;49.088;11.886;2022-07-18T11:54:08;96535.50;;;31.79;20.68
27425;BME280;15244;49.088;11.886;2022-07-18T11:59:10;96523.28;;;31.93;20.74
27425;BME280;15244;49.088;11.886;2022-07-18T12:04:20;96520.00;;;32.06;20.68
27425;BME280;15244;49.088;11.886;2022-07-18T12:09:26;96519.50;;;32.19;20.18
27425;BME280;15244;49.088;11.886;2022-07-18T12:14:28;96526.19;;;32.33;20.24
27425;BME280;15244;49.088;11.886;2022-07-18T12:19:38;96513.44;;;32.49;20.27
27425;BME280;15244;49.088;11.886;2022-07-18T12:29:59;96504.94;;;32.71;19.93
27425;BME280;15244;49.088;11.886;2022-07-18T12:35:04;96509.84;;;32.82;19.22
27425;BME280;15244;49.088;11.886;2022-07-18T12:40:11;96508.81;;;32.85;18.98
27425;BME280;15244;49.088;11.886;2022-07-18T12:45:30;96503.94;;;32.80;18.15
27425;BME280;15244;49.088;11.886;2022-07-18T12:50:32;96494.94;;;32.81;18.65
27425;BME280;15244;49.088;11.886;2022-07-18T12:55:34;96486.47;;;32.87;18.57
27425;BME280;15244;49.088;11.886;2022-07-18T13:00:36;96490.31;;;32.95;18.11
27425;BME280;15244;49.088;11.886;2022-07-18T13:05:39;96489.53;;;33.00;18.57
27425;BME280;15244;49.088;11.886;2022-07-18T13:10:41;96496.47;;;32.99;18.16
27425;BME280;15244;49.088;11.886;2022-07-18T13:15:43;96490.56;;;33.03;18.56
27425;BME280;15244;49.088;11.886;2022-07-18T13:20:45;96488.00;;;33.05;18.55
27425;BME280;15244;49.088;11.886;2022-07-18T13:25:46;96491.84;;;33.08;18.26
27425;BME280;15244;49.088;11.886;2022-07-18T13:30:48;96477.69;;;33.19;18.15
27425;BME280;15244;49.088;11.886;2022-07-18T13:35:50;96478.44;;;33.31;18.22
27425;BME280;15244;49.088;11.886;2022-07-18T13:40:55;96470.16;;;33.44;18.44
27425;BME280;15244;49.088;11.886;2022-07-18T13:45:57;96460.91;;;33.60;18.26
27425;BME280;15244;49.088;11.886;2022-07-18T13:51:05;96464.97;;;33.71;17.60
27425;BME280;15244;49.088;11.886;2022-07-18T13:56:07;96454.41;;;33.71;17.62
27425;BME280;15244;49.088;11.886;2022-07-18T14:01:08;96453.88;;;33.73;17.39
27425;BME280;15244;49.088;11.886;2022-07-18T14:06:10;96445.38;;;33.78;17.59
27425;BME280;15244;49.088;11.886;2022-07-18T14:11:12;96453.84;;;33.84;17.53
27425;BME280;15244;49.088;11.886;2022-07-18T14:16:14;96441.44;;;33.93;17.29
27425;BME280;15244;49.088;11.886;2022-07-18T14:21:17;96442.44;;;34.01;17.16
27425;BME280;15244;49.088;11.886;2022-07-18T14:26:22;96441.34;;;34.09;17.03
27425;BME280;15244;49.088;11.886;2022-07-18T14:31:23;96441.06;;;34.19;17.06
27425;BME280;15244;49.088;11.886;2022-07-18T14:36:25;96427.16;;;34.15;17.26
27425;BME280;15244;49.088;11.886;2022-07-18T14:41:27;96433.56;;;34.21;17.48
27425;BME280;15244;49.088;11.886;2022-07-18T14:46:29;96421.66;;;34.28;16.81
27425;BME280;15244;49.088;11.886;2022-07-18T14:51:31;96427.88;;;34.27;17.00
27425;BME280;15244;49.088;11.886;2022-07-18T14:56:33;96420.38;;;34.29;16.99
27425;BME280;15244;49.088;11.886;2022-07-18T15:01:36;96425.22;;;34.35;16.90
27425;BME280;15244;49.088;11.886;2022-07-18T15:06:37;96413.34;;;34.42;16.97
27425;BME280;15244;49.088;11.886;2022-07-18T15:11:40;96413.47;;;34.55;17.15
27425;BME280;15244;49.088;11.886;2022-07-18T15:16:45;96417.53;;;34.65;16.88
27425;BME280;15244;49.088;11.886;2022-07-18T15:21:47;96407.31;;;34.81;17.05
27425;BME280;15244;49.088;11.886;2022-07-18T15:26:50;96413.31;;;35.02;16.96
27425;BME280;15244;49.088;11.886;2022-07-18T15:31:55;96408.75;;;35.18;16.29
27425;BME280;15244;49.088;11.886;2022-07-18T15:36:57;96402.50;;;35.25;16.46
27425;BME280;15244;49.088;11.886;2022-07-18T15:41:59;96396.03;;;35.25;16.12
27425;BME280;15244;49.088;11.886;2022-07-18T15:47:01;96396.53;;;35.29;16.77
27425;BME280;15244;49.088;11.886;2022-07-18T15:52:04;96387.66;;;35.38;16.35
27425;BME280;15244;49.088;11.886;2022-07-18T15:57:07;96391.25;;;35.38;16.22
27425;BME280;15244;49.088;11.886;2022-07-18T16:02:09;96387.72;;;35.32;15.97
27425;BME280;15244;49.088;11.886;2022-07-18T16:07:11;96372.59;;;35.24;16.15
27425;BME280;15244;49.088;11.886;2022-07-18T16:12:18;96370.84;;;35.21;16.24
27425;BME280;15244;49.088;11.886;2022-07-18T16:17:20;96372.91;;;35.21;16.16
27425;BME280;15244;49.088;11.886;2022-07-18T16:22:22;96363.09;;;35.22;16.39
27425;BME280;15244;49.088;11.886;2022-07-18T16:27:24;96368.94;;;35.29;17.10
27425;BME280;15244;49.088;11.886;2022-07-18T16:32:26;96359.00;;;35.42;16.97
27425;BME280;15244;49.088;11.886;2022-07-18T16:37:28;96352.72;;;35.49;16.75
27425;BME280;15244;49.088;11.886;2022-07-18T16:42:30;96349.63;;;35.47;16.64
27425;BME280;15244;49.088;11.886;2022-07-18T16:47:32;96355.06;;;35.45;16.70
27425;BME280;15244;49.088;11.886;2022-07-18T16:52:37;96350.25;;;35.39;16.67
27425;BME280;15244;49.088;11.886;2022-07-18T16:57:39;96341.59;;;35.32;16.70
27425;BME280;15244;49.088;11.886;2022-07-18T17:02:40;96350.69;;;35.25;16.26
27425;BME280;15244;49.088;11.886;2022-07-18T17:07:44;96345.19;;;35.13;16.55
27425;BME280;15244;49.088;11.886;2022-07-18T17:12:46;96353.50;;;35.06;16.94
27425;BME280;15244;49.088;11.886;2022-07-18T17:17:48;96355.63;;;35.00;17.02
27425;BME280;15244;49.088;11.886;2022-07-18T17:22:57;96348.72;;;34.95;16.86
27425;BME280;15244;49.088;11.886;2022-07-18T17:27:59;96352.41;;;34.90;16.78
27425;BME280;15244;49.088;11.886;2022-07-18T17:33:01;96358.13;;;34.84;17.04
27425;BME280;15244;49.088;11.886;2022-07-18T17:38:24;96348.63;;;34.82;17.29
27425;BME280;15244;49.088;11.886;2022-07-18T17:43:26;96348.31;;;34.85;17.40
27425;BME280;15244;49.088;11.886;2022-07-18T17:48:28;96346.25;;;34.86;17.25
27425;BME280;15244;49.088;11.886;2022-07-18T17:53:30;96355.81;;;34.83;17.39
27425;BME280;15244;49.088;11.886;2022-07-18T17:58:32;96352.22;;;34.82;17.50
27425;BME280;15244;49.088;11.886;2022-07-18T18:03:33;96353.56;;;34.76;17.52
27425;BME280;15244;49.088;11.886;2022-07-18T18:08:35;96355.75;;;34.64;17.65
27425;BME280;15244;49.088;11.886;2022-07-18T18:13:37;96362.03;;;34.51;17.92
27425;BME280;15244;49.088;11.886;2022-07-18T18:18:39;96362.66;;;34.38;18.14
27425;BME280;15244;49.088;11.886;2022-07-18T18:23:41;96370.50;;;34.26;18.16
27425;BME280;15244;49.088;11.886;2022-07-18T18:28:43;96364.66;;;34.13;18.37
27425;BME280;15244;49.088;11.886;2022-07-18T18:33:45;96359.38;;;33.98;18.25
27425;BME280;15244;49.088;11.886;2022-07-18T18:38:46;96370.81;;;33.81;18.36
27425;BME280;15244;49.088;11.886;2022-07-18T18:43:48;96377.31;;;33.65;18.15
27425;BME280;15244;49.088;11.886;2022-07-18T18:48:49;96374.59;;;33.48;18.60
27425;BME280;15244;49.088;11.886;2022-07-18T18:53:52;96373.88;;;33.31;18.63
27425;BME280;15244;49.088;11.886;2022-07-18T18:58:54;96383.44;;;33.16;18.62
27425;BME280;15244;49.088;11.886;2022-07-18T19:03:56;96382.19;;;33.00;18.42
27425;BME280;15244;49.088;11.886;2022-07-18T19:08:59;96372.50;;;32.85;18.72
27425;BME280;15244;49.088;11.886;2022-07-18T19:14:01;96380.75;;;32.66;18.83
27425;BME280;15244;49.088;11.886;2022-07-18T19:19:03;96383.59;;;32.49;19.26
27425;BME280;15244;49.088;11.886;2022-07-18T19:24:05;96391.28;;;32.31;19.15
27425;BME280;15244;49.088;11.886;2022-07-18T19:29:07;96399.47;;;32.12;19.31
27425;BME280;15244;49.088;11.886;2022-07-18T19:34:09;96397.16;;;31.94;19.78
27425;BME280;15244;49.088;11.886;2022-07-18T19:39:11;96397.84;;;31.78;19.33
27425;BME280;15244;49.088;11.886;2022-07-18T19:44:13;96391.66;;;31.62;19.97
27425;BME280;15244;49.088;11.886;2022-07-18T19:49:22;96397.03;;;31.49;20.21
27425;BME280;15244;49.088;11.886;2022-07-18T19:54:24;96392.31;;;31.35;20.10
27425;BME280;15244;49.088;11.886;2022-07-18T19:59:28;96400.47;;;31.21;19.94
27425;BME280;15244;49.088;11.886;2022-07-18T20:04:31;96403.75;;;31.08;20.61
27425;BME280;15244;49.088;11.886;2022-07-18T20:09:33;96397.03;;;30.95;20.44
27425;BME280;15244;49.088;11.886;2022-07-18T20:14:37;96395.13;;;30.80;20.69
27425;BME280;15244;49.088;11.886;2022-07-18T20:19:39;96396.84;;;30.66;21.02
27425;BME280;15244;49.088;11.886;2022-07-18T20:24:41;96397.53;;;30.56;21.28
27425;BME280;15244;49.088;11.886;2022-07-18T20:29:43;96389.50;;;30.43;21.40
27425;BME280;15244;49.088;11.886;2022-07-18T20:34:45;96398.09;;;30.28;21.45
27425;BME280;15244;49.088;11.886;2022-07-18T20:39:46;96409.22;;;30.17;21.55
27425;BME280;15244;49.088;11.886;2022-07-18T20:44:48;96404.00;;;30.04;21.76
27425;BME280;15244;49.088;11.886;2022-07-18T20:49:50;96403.13;;;29.92;21.60
27425;BME280;15244;49.088;11.886;2022-07-18T20:54:52;96404.56;;;29.82;21.81
27425;BME280;15244;49.088;11.886;2022-07-18T21:00:07;96404.94;;;29.69;22.04
27425;BME280;15244;49.088;11.886;2022-07-18T21:05:09;96395.09;;;29.59;22.27
27425;BME280;15244;49.088;11.886;2022-07-18T21:10:11;96406.47;;;29.50;22.50
27425;BME280;15244;49.088;11.886;2022-07-18T21:15:13;96404.03;;;29.37;22.21
27425;BME280;15244;49.088;11.886;2022-07-18T21:20:18;96409.06;;;29.27;22.39
27425;BME280;15244;49.088;11.886;2022-07-18T21:25:23;96404.34;;;29.19;22.33
27425;BME280;15244;49.088;11.886;2022-07-18T21:30:25;96400.41;;;29.10;22.64
27425;BME280;15244;49.088;11.886;2022-07-18T21:35:27;96406.13;;;29.01;22.71
27425;BME280;15244;49.088;11.886;2022-07-18T21:40:28;96401.72;;;28.94;22.85
27425;BME280;15244;49.088;11.886;2022-07-18T21:45:30;96406.69;;;28.85;22.92
27425;BME280;15244;49.088;11.886;2022-07-18T21:50:32;96412.63;;;28.72;23.14
27425;BME280;15244;49.088;11.886;2022-07-18T21:55:35;96408.69;;;28.64;23.53
27425;BME280;15244;49.088;11.886;2022-07-18T22:00:37;96406.75;;;28.55;23.47
27425;BME280;15244;49.088;11.886;2022-07-18T22:05:39;96404.34;;;28.48;23.80
27425;BME280;15244;49.088;11.886;2022-07-18T22:10:40;96405.97;;;28.40;23.70
27425;BME280;15244;49.088;11.886;2022-07-18T22:15:42;96401.53;;;28.33;24.42
27425;BME280;15244;49.088;11.886;2022-07-18T22:20:44;96400.38;;;28.25;24.58
27425;BME280;15244;49.088;11.886;2022-07-18T22:25:45;96403.31;;;28.16;24.89
27425;BME280;15244;49.088;11.886;2022-07-18T22:30:47;96404.94;;;28.07;24.78
27425;BME280;15244;49.088;11.886;2022-07-18T22:35:49;96409.41;;;27.99;25.11
27425;BME280;15244;49.088;11.886;2022-07-18T22:40:51;96411.53;;;27.90;25.21
27425;BME280;15244;49.088;11.886;2022-07-18T22:45:52;96405.19;;;27.80;25.57
27425;BME280;15244;49.088;11.886;2022-07-18T22:50:54;96408.88;;;27.71;25.53
27425;BME280;15244;49.088;11.886;2022-07-18T22:55:56;96405.38;;;27.61;25.92
27425;BME280;15244;49.088;11.886;2022-07-18T23:00:58;96399.09;;;27.52;25.64
27425;BME280;15244;49.088;11.886;2022-07-18T23:05:59;96404.19;;;27.38;25.72
27425;BME280;15244;49.088;11.886;2022-07-18T23:11:01;96401.44;;;27.29;25.97
27425;BME280;15244;49.088;11.886;2022-07-18T23:16:05;96404.34;;;27.20;25.62
27425;BME280;15244;49.088;11.886;2022-07-18T23:21:06;96396.72;;;27.11;25.92
27425;BME280;15244;49.088;11.886;2022-07-18T23:26:08;96396.03;;;27.01;26.15
27425;BME280;15244;49.088;11.886;2022-07-18T23:31:10;96394.53;;;26.91;26.26
27425;BME280;15244;49.088;11.886;2022-07-18T23:36:11;96394.59;;;26.82;26.17
27425;BME280;15244;49.088;11.886;2022-07-18T23:41:13;96394.19;;;26.74;26.57
27425;BME280;15244;49.088;11.886;2022-07-18T23:46:15;96390.47;;;26.68;26.71
27425;BME280;15244;49.088;11.886;2022-07-18T23:51:23;96398.75;;;26.63;26.90
27425;BME280;15244;49.088;11.886;2022-07-18T23:56:25;96399.09;;;26.55;26.90
